Senin
| Ora | Descriere | Temp | Se simte | Precipitatii | Umiditate | Vant |
|---|---|---|---|---|---|---|
| 00:00 | Senin | 14.4° | 14.6° | 0% | 52% | S 5.8 KM/H |
| 01:00 | Senin | 13.7° | 13.4° | 0% | 55% | S 7.2 KM/H |
| 02:00 | Senin | 13° | 12.7° | 0% | 58% | S 7.2 KM/H |
| 03:00 | Senin | 12.4° | 11.8° | 0% | 60% | SSE 7.9 KM/H |
| 04:00 | Senin | 11.8° | 10.9° | 0% | 64% | SSE 9.4 KM/H |
| 05:00 | Senin | 11.4° | 10.4° | 0% | 68% | SE 9.7 KM/H |
| 06:00 | Senin | 11° | 9.9° | 0% | 72% | SSE 9 KM/H |
| 07:00 | Senin | 11.2° | 10.3° | 0% | 75% | SSE 8.6 KM/H |
| 08:00 | Senin | 11.4° | 13.5° | 0% | 66% | SSE 7.9 KM/H |
| 09:00 | Senin | 16.8° | 16.8° | 0% | 62% | SSE 9.4 KM/H |
| 10:00 | Senin | 19.1° | 19.1° | 0% | 56% | SSE 9.7 KM/H |
| 11:00 | Senin | 21.1° | 21.1° | 0% | 50% | S 10.8 KM/H |
| 12:00 | Senin | 22.6° | 24.5° | 0% | 46% | S 11.5 KM/H |
| 13:00 | Senin | 23.7° | 24.7° | 0% | 42% | S 12.6 KM/H |
| 14:00 | Senin | 24.6° | 24.8° | 0% | 35% | SSW 14.8 KM/H |
| 15:00 | Senin | 25.1° | 25° | 0% | 33% | SSW 15.8 KM/H |
| 16:00 | Senin | 25.3° | 25.1° | 0% | 33% | SSW 16.6 KM/H |
| 17:00 | Senin | 25.2° | 25° | 0% | 32% | SSW 16.2 KM/H |
| 18:00 | Senin | 24.8° | 25.1° | 0% | 38% | SSW 13 KM/H |
| 19:00 | Senin | 23.3° | 24.8° | 0% | 47% | S 10.4 KM/H |
| 20:00 | Senin | 20.1° | 20.1° | 0% | 53% | S 11.5 KM/H |
| 21:00 | 17.9° | 17.9° | 0% | 51% | SSE 11.5 KM/H | |
| 22:00 | Senin | 16.9° | 16.9° | 0% | 50% | SSE 11.9 KM/H |
| 23:00 | Senin | 15.9° | 16° | 0% | 53% | S 13 KM/H |